PWSweather.com
Personal Weather Stations
Station Observations
KGAMILLE3
Southwest Baldwin County, Milledgeville, GA 31061

Southwest Baldwin CountyMilledgeville, GA 31061

Lat: 32.9849557, Lon: -83.33361130000003

Elevation: 384

Station Type: Davis Vantage Pro 3

High Low Average
Temperature 90.8°F32.7°C 73.5°F23.1°C 79.2°F26.2°C
Dew Point 84.2°F29.0°C 72.2°F22.3°C 76.6°F24.8°C
Winds 3.0 mph 4.8 kmh Calm Calm Calm ENECalm ENE
Wind Gusts 10.0 mph16.1 kmh -- 2.0 mph3.2 kmh
Humidity 97% 81% 92%
Pressure 30.10 in1019.3 mb 30.02 in1016.6 mb -
Precipitation 0.50 in12.7 mm - -
Hour Temp Dew Point Humidity Winds Wind Gusts Pressure Precip Precip Rate Daily Precip Total
12:00 AM 75.3°F24.1°C 74.4°F23.6°C 97% 1.0 mph E1.6 kmh E 3.0 mph4.8 kmh 30.05 in1017.6 mb 0.00 in0.0 mm 0.00 in0.0 mm 0.06 in1.5 mm
12:30 AM 74.8°F23.8°C 73.9°F23.3°C 97% Calm Calm -- 30.05 in1017.6 mb 0.00 in0.0 mm 0.00 in0.0 mm 0.00 in0.0 mm
01:00 AM 74.4°F23.6°C 73.5°F23.1°C 97% Calm Calm -- 30.03 in1016.9 mb 0.00 in0.0 mm 0.00 in0.0 mm 0.00 in0.0 mm
01:30 AM 74.0°F23.3°C 73.1°F22.8°C 97% Calm Calm -- 30.04 in1017.3 mb 0.00 in0.0 mm 0.00 in0.0 mm 0.00 in0.0 mm
02:00 AM 73.7°F23.2°C 72.8°F22.7°C 97% Calm Calm -- 30.04 in1017.3 mb 0.00 in0.0 mm 0.00 in0.0 mm 0.00 in0.0 mm
05:00 AM 73.5°F23.1°C 72.3°F22.4°C 96% Calm Calm -- 30.04 in1017.3 mb 0.06 in1.5 mm 0.00 in0.0 mm 0.06 in1.5 mm
05:35 AM 73.9°F23.3°C 72.7°F22.6°C 96% Calm Calm -- 30.05 in1017.6 mb 0.02 in0.5 mm 0.00 in0.0 mm 0.08 in2.0 mm
05:39 AM 73.9°F23.3°C 72.7°F22.6°C 96% Calm Calm -- 30.05 in1017.6 mb 0.02 in0.5 mm 0.00 in0.0 mm 0.08 in2.0 mm
05:52 AM 73.8°F23.2°C 72.6°F22.6°C 96% Calm Calm -- 30.05 in1017.6 mb 0.02 in0.5 mm 0.00 in0.0 mm 0.08 in2.0 mm
05:54 AM 73.8°F23.2°C 72.6°F22.6°C 96% Calm Calm -- 30.05 in1017.6 mb 0.02 in0.5 mm 0.00 in0.0 mm 0.08 in2.0 mm
05:55 AM 73.8°F23.2°C 72.6°F22.6°C 96% Calm Calm -- 30.05 in1017.6 mb 0.02 in0.5 mm 0.00 in0.0 mm 0.08 in2.0 mm
05:56 AM 73.8°F23.2°C 72.6°F22.6°C 96% Calm Calm -- 30.05 in1017.6 mb 0.02 in0.5 mm 0.00 in0.0 mm 0.08 in2.0 mm
05:59 AM 73.8°F23.2°C 72.6°F22.6°C 96% Calm Calm -- 30.05 in1017.6 mb 0.02 in0.5 mm 0.00 in0.0 mm 0.08 in2.0 mm
06:01 AM 73.8°F23.2°C 72.6°F22.6°C 96% Calm Calm -- 30.05 in1017.6 mb 0.00 in0.0 mm 0.00 in0.0 mm 0.08 in2.0 mm
06:11 AM 73.8°F23.2°C 72.6°F22.6°C 96% Calm Calm -- 30.06 in1017.9 mb 0.00 in0.0 mm 0.00 in0.0 mm 0.08 in2.0 mm
06:12 AM 73.8°F23.2°C 72.3°F22.4°C 95% Calm Calm -- 30.06 in1017.9 mb 0.00 in0.0 mm 0.00 in0.0 mm 0.08 in2.0 mm
06:14 AM 73.8°F23.2°C 72.3°F22.4°C 95% Calm Calm -- 30.06 in1017.9 mb 0.00 in0.0 mm 0.00 in0.0 mm 0.08 in2.0 mm
06:15 AM 73.8°F23.2°C 72.3°F22.4°C 95% Calm Calm -- 30.05 in1017.6 mb 0.00 in0.0 mm 0.00 in0.0 mm 0.08 in2.0 mm
06:16 AM 73.8°F23.2°C 72.3°F22.4°C 95% Calm Calm -- 30.05 in1017.6 mb 0.00 in0.0 mm 0.00 in0.0 mm 0.08 in2.0 mm
06:17 AM 73.9°F23.3°C 72.4°F22.4°C 95% Calm Calm -- 30.05 in1017.6 mb 0.00 in0.0 mm 0.00 in0.0 mm 0.08 in2.0 mm
06:18 AM 73.9°F23.3°C 72.7°F22.6°C 96% Calm Calm -- 30.05 in1017.6 mb 0.00 in0.0 mm 0.00 in0.0 mm 0.08 in2.0 mm
06:19 AM 73.9°F23.3°C 72.4°F22.4°C 95% Calm Calm -- 30.05 in1017.6 mb 0.00 in0.0 mm 0.00 in0.0 mm 0.08 in2.0 mm
06:20 AM 73.9°F23.3°C 72.7°F22.6°C 96% Calm Calm -- 30.06 in1017.9 mb 0.00 in0.0 mm 0.00 in0.0 mm 0.08 in2.0 mm
06:21 AM 73.9°F23.3°C 72.4°F22.4°C 95% Calm Calm -- 30.05 in1017.6 mb 0.00 in0.0 mm 0.00 in0.0 mm 0.08 in2.0 mm
06:22 AM 73.9°F23.3°C 72.7°F22.6°C 96% Calm Calm -- 30.06 in1017.9 mb 0.00 in0.0 mm 0.00 in0.0 mm 0.08 in2.0 mm
06:23 AM 73.9°F23.3°C 72.7°F22.6°C 96% Calm Calm -- 30.06 in1017.9 mb 0.00 in0.0 mm 0.00 in0.0 mm 0.08 in2.0 mm
06:24 AM 73.9°F23.3°C 72.4°F22.4°C 95% Calm Calm -- 30.06 in1017.9 mb 0.00 in0.0 mm 0.00 in0.0 mm 0.08 in2.0 mm
06:25 AM 73.9°F23.3°C 72.7°F22.6°C 96% Calm Calm -- 30.06 in1017.9 mb 0.00 in0.0 mm 0.00 in0.0 mm 0.08 in2.0 mm
06:27 AM 73.9°F23.3°C 72.4°F22.4°C 95% Calm Calm -- 30.06 in1017.9 mb 0.00 in0.0 mm 0.00 in0.0 mm 0.08 in2.0 mm
06:28 AM 73.9°F23.3°C 72.4°F22.4°C 95% Calm Calm -- 30.06 in1017.9 mb 0.00 in0.0 mm 0.00 in0.0 mm 0.08 in2.0 mm
06:29 AM 73.9°F23.3°C 72.4°F22.4°C 95% Calm Calm -- 30.06 in1017.9 mb 0.00 in0.0 mm 0.00 in0.0 mm 0.08 in2.0 mm
06:30 AM 73.9°F23.3°C 72.4°F22.4°C 95% Calm Calm -- 30.06 in1017.9 mb 0.00 in0.0 mm 0.00 in0.0 mm 0.08 in2.0 mm
06:32 AM 73.9°F23.3°C 72.4°F22.4°C 95% Calm Calm -- 30.06 in1017.9 mb 0.00 in0.0 mm 0.00 in0.0 mm 0.08 in2.0 mm
06:33 AM 73.9°F23.3°C 72.4°F22.4°C 95% Calm Calm -- 30.06 in1017.9 mb 0.00 in0.0 mm 0.00 in0.0 mm 0.08 in2.0 mm
06:35 AM 73.9°F23.3°C 72.4°F22.4°C 95% Calm Calm -- 30.06 in1017.9 mb 0.00 in0.0 mm 0.00 in0.0 mm 0.08 in2.0 mm
06:42 AM 73.9°F23.3°C 72.4°F22.4°C 95% Calm Calm -- 30.06 in1017.9 mb 0.00 in0.0 mm 0.00 in0.0 mm 0.08 in2.0 mm
06:44 AM 73.9°F23.3°C 72.4°F22.4°C 95% Calm Calm -- 30.06 in1017.9 mb 0.00 in0.0 mm 0.00 in0.0 mm 0.08 in2.0 mm
06:45 AM 73.8°F23.2°C 72.6°F22.6°C 96% Calm Calm -- 30.07 in1018.3 mb 0.00 in0.0 mm 0.00 in0.0 mm 0.08 in2.0 mm
06:46 AM 73.8°F23.2°C 72.3°F22.4°C 95% Calm Calm -- 30.07 in1018.3 mb 0.00 in0.0 mm 0.00 in0.0 mm 0.08 in2.0 mm
06:47 AM 73.8°F23.2°C 72.3°F22.4°C 95% Calm Calm -- 30.07 in1018.3 mb 0.00 in0.0 mm 0.00 in0.0 mm 0.08 in2.0 mm
06:48 AM 73.8°F23.2°C 72.3°F22.4°C 95% Calm Calm -- 30.07 in1018.3 mb 0.00 in0.0 mm 0.00 in0.0 mm 0.08 in2.0 mm
06:49 AM 73.8°F23.2°C 72.3°F22.4°C 95% Calm Calm -- 30.07 in1018.3 mb 0.00 in0.0 mm 0.00 in0.0 mm 0.08 in2.0 mm
06:50 AM 73.8°F23.2°C 72.3°F22.4°C 95% Calm Calm -- 30.07 in1018.3 mb 0.00 in0.0 mm 0.00 in0.0 mm 0.08 in2.0 mm
06:51 AM 73.8°F23.2°C 72.3°F22.4°C 95% Calm Calm -- 30.07 in1018.3 mb 0.00 in0.0 mm 0.00 in0.0 mm 0.08 in2.0 mm
06:52 AM 73.8°F23.2°C 72.3°F22.4°C 95% Calm Calm -- 30.07 in1018.3 mb 0.00 in0.0 mm 0.00 in0.0 mm 0.08 in2.0 mm
06:53 AM 73.8°F23.2°C 72.3°F22.4°C 95% Calm Calm -- 30.07 in1018.3 mb 0.00 in0.0 mm 0.00 in0.0 mm 0.08 in2.0 mm
06:55 AM 73.8°F23.2°C 72.3°F22.4°C 95% Calm Calm -- 30.07 in1018.3 mb 0.00 in0.0 mm 0.00 in0.0 mm 0.08 in2.0 mm
06:56 AM 73.7°F23.2°C 72.2°F22.3°C 95% Calm Calm -- 30.07 in1018.3 mb 0.00 in0.0 mm 0.00 in0.0 mm 0.08 in2.0 mm
06:57 AM 73.8°F23.2°C 72.3°F22.4°C 95% Calm Calm -- 30.07 in1018.3 mb 0.00 in0.0 mm 0.00 in0.0 mm 0.08 in2.0 mm
06:58 AM 73.8°F23.2°C 72.3°F22.4°C 95% Calm Calm -- 30.07 in1018.3 mb 0.00 in0.0 mm 0.00 in0.0 mm 0.08 in2.0 mm
06:59 AM 73.8°F23.2°C 72.3°F22.4°C 95% Calm Calm -- 30.07 in1018.3 mb 0.00 in0.0 mm 0.00 in0.0 mm 0.08 in2.0 mm
07:00 AM 73.7°F23.2°C 72.2°F22.3°C 95% Calm Calm -- 30.07 in1018.3 mb 0.00 in0.0 mm 0.00 in0.0 mm 0.08 in2.0 mm
07:07 AM 73.9°F23.3°C 72.4°F22.4°C 95% Calm Calm -- 30.08 in1018.6 mb 0.00 in0.0 mm 0.00 in0.0 mm 0.08 in2.0 mm
07:15 AM 74.0°F23.3°C 72.5°F22.5°C 95% Calm Calm -- 30.08 in1018.6 mb 0.00 in0.0 mm 0.00 in0.0 mm 0.08 in2.0 mm
07:17 AM 74.1°F23.4°C 72.6°F22.6°C 95% Calm Calm -- 30.08 in1018.6 mb 0.00 in0.0 mm 0.00 in0.0 mm 0.08 in2.0 mm
07:18 AM 74.1°F23.4°C 72.6°F22.6°C 95% Calm Calm -- 30.08 in1018.6 mb 0.00 in0.0 mm 0.00 in0.0 mm 0.08 in2.0 mm
07:19 AM 74.1°F23.4°C 72.6°F22.6°C 95% Calm Calm -- 30.08 in1018.6 mb 0.00 in0.0 mm 0.00 in0.0 mm 0.08 in2.0 mm
07:20 AM 74.1°F23.4°C 72.6°F22.6°C 95% Calm Calm -- 30.08 in1018.6 mb 0.00 in0.0 mm 0.00 in0.0 mm 0.08 in2.0 mm
07:21 AM 74.1°F23.4°C 72.6°F22.6°C 95% Calm Calm -- 30.08 in1018.6 mb 0.00 in0.0 mm 0.00 in0.0 mm 0.08 in2.0 mm
07:22 AM 74.2°F23.4°C 72.7°F22.6°C 95% Calm Calm -- 30.08 in1018.6 mb 0.00 in0.0 mm 0.00 in0.0 mm 0.08 in2.0 mm
07:25 AM 74.2°F23.4°C 72.4°F22.4°C 94% Calm Calm -- 30.08 in1018.6 mb 0.00 in0.0 mm 0.00 in0.0 mm 0.08 in2.0 mm
07:27 AM 74.2°F23.4°C 72.7°F22.6°C 95% Calm Calm -- 30.08 in1018.6 mb 0.00 in0.0 mm 0.00 in0.0 mm 0.08 in2.0 mm
07:28 AM 74.2°F23.4°C 72.7°F22.6°C 95% Calm Calm -- 30.08 in1018.6 mb 0.00 in0.0 mm 0.00 in0.0 mm 0.08 in2.0 mm
07:29 AM 74.2°F23.4°C 72.4°F22.4°C 94% Calm Calm -- 30.08 in1018.6 mb 0.00 in0.0 mm 0.00 in0.0 mm 0.08 in2.0 mm
07:30 AM 74.2°F23.4°C 72.4°F22.4°C 94% Calm Calm -- 30.08 in1018.6 mb 0.00 in0.0 mm 0.00 in0.0 mm 0.08 in2.0 mm
07:31 AM 74.2°F23.4°C 72.4°F22.4°C 94% Calm Calm -- 30.08 in1018.6 mb 0.00 in0.0 mm 0.00 in0.0 mm 0.08 in2.0 mm
07:32 AM 74.3°F23.5°C 72.5°F22.5°C 94% Calm Calm -- 30.08 in1018.6 mb 0.00 in0.0 mm 0.00 in0.0 mm 0.08 in2.0 mm
07:33 AM 74.3°F23.5°C 72.5°F22.5°C 94% Calm Calm -- 30.08 in1018.6 mb 0.00 in0.0 mm 0.00 in0.0 mm 0.08 in2.0 mm
07:34 AM 74.3°F23.5°C 72.5°F22.5°C 94% Calm Calm -- 30.08 in1018.6 mb 0.00 in0.0 mm 0.00 in0.0 mm 0.08 in2.0 mm
07:35 AM 74.3°F23.5°C 72.5°F22.5°C 94% Calm Calm -- 30.08 in1018.6 mb 0.00 in0.0 mm 0.00 in0.0 mm 0.08 in2.0 mm
07:36 AM 74.3°F23.5°C 72.5°F22.5°C 94% Calm Calm -- 30.08 in1018.6 mb 0.00 in0.0 mm 0.00 in0.0 mm 0.08 in2.0 mm
07:37 AM 74.3°F23.5°C 72.5°F22.5°C 94% Calm Calm -- 30.08 in1018.6 mb 0.00 in0.0 mm 0.00 in0.0 mm 0.08 in2.0 mm
07:38 AM 74.3°F23.5°C 72.5°F22.5°C 94% Calm Calm -- 30.08 in1018.6 mb 0.00 in0.0 mm 0.00 in0.0 mm 0.08 in2.0 mm
07:39 AM 74.3°F23.5°C 72.5°F22.5°C 94% Calm Calm -- 30.08 in1018.6 mb 0.00 in0.0 mm 0.00 in0.0 mm 0.08 in2.0 mm
07:40 AM 74.3°F23.5°C 72.5°F22.5°C 94% Calm Calm -- 30.08 in1018.6 mb 0.00 in0.0 mm 0.00 in0.0 mm 0.08 in2.0 mm
07:41 AM 74.3°F23.5°C 72.5°F22.5°C 94% Calm Calm -- 30.08 in1018.6 mb 0.00 in0.0 mm 0.00 in0.0 mm 0.08 in2.0 mm
07:46 AM 74.4°F23.6°C 72.6°F22.6°C 94% Calm Calm -- 30.08 in1018.6 mb 0.00 in0.0 mm 0.00 in0.0 mm 0.08 in2.0 mm
07:51 AM 74.5°F23.6°C 72.7°F22.6°C 94% Calm Calm -- 30.08 in1018.6 mb 0.00 in0.0 mm 0.00 in0.0 mm 0.08 in2.0 mm
07:53 AM 74.5°F23.6°C 72.7°F22.6°C 94% Calm Calm -- 30.08 in1018.6 mb 0.00 in0.0 mm 0.00 in0.0 mm 0.08 in2.0 mm
08:00 AM 74.5°F23.6°C 72.7°F22.6°C 94% Calm Calm -- 30.08 in1018.6 mb 0.00 in0.0 mm 0.00 in0.0 mm 0.08 in2.0 mm
08:01 AM 74.5°F23.6°C 72.7°F22.6°C 94% Calm Calm -- 30.08 in1018.6 mb 0.00 in0.0 mm 0.00 in0.0 mm 0.08 in2.0 mm
08:03 AM 74.6°F23.7°C 72.4°F22.4°C 93% Calm Calm -- 30.08 in1018.6 mb 0.00 in0.0 mm 0.00 in0.0 mm 0.08 in2.0 mm
08:05 AM 74.6°F23.7°C 72.4°F22.4°C 93% Calm Calm -- 30.08 in1018.6 mb 0.00 in0.0 mm 0.00 in0.0 mm 0.08 in2.0 mm
08:07 AM 74.6°F23.7°C 72.8°F22.7°C 94% Calm Calm -- 30.08 in1018.6 mb 0.00 in0.0 mm 0.00 in0.0 mm 0.08 in2.0 mm
08:11 AM 74.6°F23.7°C 72.8°F22.7°C 94% Calm Calm -- 30.08 in1018.6 mb 0.00 in0.0 mm 0.00 in0.0 mm 0.08 in2.0 mm
08:23 AM 74.7°F23.7°C 72.5°F22.5°C 93% Calm Calm -- 30.09 in1019.0 mb 0.00 in0.0 mm 0.00 in0.0 mm 0.08 in2.0 mm
08:24 AM 74.7°F23.7°C 72.5°F22.5°C 93% Calm Calm -- 30.09 in1019.0 mb 0.00 in0.0 mm 0.00 in0.0 mm 0.08 in2.0 mm
08:25 AM 74.7°F23.7°C 72.5°F22.5°C 93% Calm Calm -- 30.09 in1019.0 mb 0.00 in0.0 mm 0.00 in0.0 mm 0.08 in2.0 mm
08:26 AM 74.8°F23.8°C 72.6°F22.6°C 93% Calm Calm -- 30.09 in1019.0 mb 0.00 in0.0 mm 0.00 in0.0 mm 0.08 in2.0 mm
08:27 AM 74.8°F23.8°C 72.6°F22.6°C 93% Calm Calm -- 30.09 in1019.0 mb 0.00 in0.0 mm 0.00 in0.0 mm 0.08 in2.0 mm
08:28 AM 74.8°F23.8°C 72.6°F22.6°C 93% Calm Calm -- 30.09 in1019.0 mb 0.00 in0.0 mm 0.00 in0.0 mm 0.08 in2.0 mm
08:29 AM 74.8°F23.8°C 72.6°F22.6°C 93% Calm Calm -- 30.09 in1019.0 mb 0.00 in0.0 mm 0.00 in0.0 mm 0.08 in2.0 mm
08:30 AM 74.8°F23.8°C 72.6°F22.6°C 93% Calm Calm -- 30.09 in1019.0 mb 0.00 in0.0 mm 0.00 in0.0 mm 0.08 in2.0 mm
08:31 AM 74.8°F23.8°C 72.6°F22.6°C 93% Calm Calm -- 30.09 in1019.0 mb 0.00 in0.0 mm 0.00 in0.0 mm 0.08 in2.0 mm
08:32 AM 74.8°F23.8°C 72.6°F22.6°C 93% Calm Calm -- 30.09 in1019.0 mb 0.00 in0.0 mm 0.00 in0.0 mm 0.08 in2.0 mm
08:33 AM 74.9°F23.8°C 72.7°F22.6°C 93% Calm Calm -- 30.09 in1019.0 mb 0.00 in0.0 mm 0.00 in0.0 mm 0.08 in2.0 mm
08:34 AM 74.9°F23.8°C 72.7°F22.6°C 93% Calm Calm -- 30.09 in1019.0 mb 0.00 in0.0 mm 0.00 in0.0 mm 0.08 in2.0 mm
08:35 AM 74.9°F23.8°C 72.7°F22.6°C 93% Calm Calm -- 30.09 in1019.0 mb 0.00 in0.0 mm 0.00 in0.0 mm 0.08 in2.0 mm
08:36 AM 74.9°F23.8°C 72.7°F22.6°C 93% Calm Calm -- 30.09 in1019.0 mb 0.00 in0.0 mm 0.00 in0.0 mm 0.08 in2.0 mm
08:39 AM 74.9°F23.8°C 72.7°F22.6°C 93% Calm Calm -- 30.09 in1019.0 mb 0.00 in0.0 mm 0.00 in0.0 mm 0.08 in2.0 mm
08:40 AM 74.9°F23.8°C 72.7°F22.6°C 93% Calm Calm -- 30.09 in1019.0 mb 0.00 in0.0 mm 0.00 in0.0 mm 0.08 in2.0 mm
08:41 AM 74.9°F23.8°C 72.7°F22.6°C 93% Calm Calm -- 30.09 in1019.0 mb 0.00 in0.0 mm 0.00 in0.0 mm 0.08 in2.0 mm
08:43 AM 74.9°F23.8°C 72.7°F22.6°C 93% Calm Calm -- 30.09 in1019.0 mb 0.00 in0.0 mm 0.00 in0.0 mm 0.08 in2.0 mm
08:44 AM 74.9°F23.8°C 72.7°F22.6°C 93% Calm Calm -- 30.09 in1019.0 mb 0.00 in0.0 mm 0.00 in0.0 mm 0.08 in2.0 mm
08:45 AM 74.9°F23.8°C 72.7°F22.6°C 93% Calm Calm -- 30.09 in1019.0 mb 0.00 in0.0 mm 0.00 in0.0 mm 0.08 in2.0 mm
08:46 AM 74.9°F23.8°C 72.7°F22.6°C 93% Calm Calm -- 30.09 in1019.0 mb 0.00 in0.0 mm 0.00 in0.0 mm 0.08 in2.0 mm
08:47 AM 74.9°F23.8°C 72.7°F22.6°C 93% Calm Calm -- 30.09 in1019.0 mb 0.00 in0.0 mm 0.00 in0.0 mm 0.08 in2.0 mm
08:48 AM 74.9°F23.8°C 72.7°F22.6°C 93% Calm Calm -- 30.09 in1019.0 mb 0.00 in0.0 mm 0.00 in0.0 mm 0.08 in2.0 mm
08:50 AM 74.9°F23.8°C 72.7°F22.6°C 93% Calm Calm -- 30.09 in1019.0 mb 0.00 in0.0 mm 0.00 in0.0 mm 0.08 in2.0 mm
08:53 AM 75.0°F23.9°C 72.5°F22.5°C 92% Calm Calm -- 30.09 in1019.0 mb 0.00 in0.0 mm 0.00 in0.0 mm 0.08 in2.0 mm
08:56 AM 75.0°F23.9°C 72.5°F22.5°C 92% Calm Calm -- 30.09 in1019.0 mb 0.00 in0.0 mm 0.00 in0.0 mm 0.08 in2.0 mm
08:57 AM 75.1°F23.9°C 72.6°F22.6°C 92% Calm Calm -- 30.09 in1019.0 mb 0.00 in0.0 mm 0.00 in0.0 mm 0.08 in2.0 mm
09:00 AM 75.2°F24.0°C 72.7°F22.6°C 92% Calm Calm -- 30.09 in1019.0 mb 0.00 in0.0 mm 0.00 in0.0 mm 0.08 in2.0 mm
09:01 AM 75.2°F24.0°C 72.7°F22.6°C 92% Calm Calm -- 30.09 in1019.0 mb 0.00 in0.0 mm 0.00 in0.0 mm 0.08 in2.0 mm
09:03 AM 75.3°F24.1°C 72.8°F22.7°C 92% Calm Calm -- 30.09 in1019.0 mb 0.00 in0.0 mm 0.00 in0.0 mm 0.08 in2.0 mm
09:04 AM 75.3°F24.1°C 72.8°F22.7°C 92% Calm Calm -- 30.09 in1019.0 mb 0.00 in0.0 mm 0.00 in0.0 mm 0.08 in2.0 mm
09:05 AM 75.4°F24.1°C 72.9°F22.7°C 92% Calm Calm -- 30.09 in1019.0 mb 0.00 in0.0 mm 0.00 in0.0 mm 0.08 in2.0 mm
09:06 AM 75.3°F24.1°C 72.8°F22.7°C 92% Calm Calm -- 30.09 in1019.0 mb 0.00 in0.0 mm 0.00 in0.0 mm 0.08 in2.0 mm
09:07 AM 75.3°F24.1°C 72.8°F22.7°C 92% Calm Calm -- 30.09 in1019.0 mb 0.00 in0.0 mm 0.00 in0.0 mm 0.08 in2.0 mm
09:09 AM 75.3°F24.1°C 72.8°F22.7°C 92% Calm Calm -- 30.09 in1019.0 mb 0.00 in0.0 mm 0.00 in0.0 mm 0.08 in2.0 mm
09:11 AM 75.3°F24.1°C 72.8°F22.7°C 92% Calm Calm -- 30.10 in1019.3 mb 0.00 in0.0 mm 0.00 in0.0 mm 0.08 in2.0 mm
09:13 AM 75.4°F24.1°C 72.9°F22.7°C 92% Calm Calm -- 30.09 in1019.0 mb 0.00 in0.0 mm 0.00 in0.0 mm 0.08 in2.0 mm
09:17 AM 75.7°F24.3°C 72.9°F22.7°C 91% Calm Calm -- 30.09 in1019.0 mb 0.00 in0.0 mm 0.00 in0.0 mm 0.08 in2.0 mm
09:20 AM 75.8°F24.3°C 73.3°F22.9°C 92% Calm Calm -- 30.09 in1019.0 mb 0.00 in0.0 mm 0.00 in0.0 mm 0.08 in2.0 mm
09:22 AM 75.8°F24.3°C 73.3°F22.9°C 92% Calm Calm -- 30.10 in1019.3 mb 0.00 in0.0 mm 0.00 in0.0 mm 0.08 in2.0 mm
09:23 AM 75.7°F24.3°C 73.2°F22.9°C 92% Calm Calm -- 30.09 in1019.0 mb 0.00 in0.0 mm 0.00 in0.0 mm 0.08 in2.0 mm
09:24 AM 75.7°F24.3°C 73.5°F23.1°C 93% Calm Calm -- 30.10 in1019.3 mb 0.00 in0.0 mm 0.00 in0.0 mm 0.08 in2.0 mm
09:27 AM 75.7°F24.3°C 73.2°F22.9°C 92% Calm Calm -- 30.10 in1019.3 mb 0.00 in0.0 mm 0.00 in0.0 mm 0.08 in2.0 mm
09:28 AM 75.8°F24.3°C 73.3°F22.9°C 92% Calm Calm -- 30.10 in1019.3 mb 0.00 in0.0 mm 0.00 in0.0 mm 0.08 in2.0 mm
09:29 AM 75.8°F24.3°C 73.3°F22.9°C 92% Calm Calm -- 30.10 in1019.3 mb 0.00 in0.0 mm 0.00 in0.0 mm 0.08 in2.0 mm
09:30 AM 75.8°F24.3°C 73.3°F22.9°C 92% Calm Calm -- 30.10 in1019.3 mb 0.00 in0.0 mm 0.00 in0.0 mm 0.08 in2.0 mm
09:31 AM 75.8°F24.3°C 73.3°F22.9°C 92% Calm Calm -- 30.10 in1019.3 mb 0.00 in0.0 mm 0.00 in0.0 mm 0.08 in2.0 mm
09:32 AM 75.8°F24.3°C 73.6°F23.1°C 93% Calm Calm -- 30.10 in1019.3 mb 0.00 in0.0 mm 0.00 in0.0 mm 0.08 in2.0 mm
09:33 AM 75.8°F24.3°C 73.6°F23.1°C 93% Calm Calm -- 30.10 in1019.3 mb 0.00 in0.0 mm 0.00 in0.0 mm 0.08 in2.0 mm
09:34 AM 75.8°F24.3°C 73.3°F22.9°C 92% Calm Calm -- 30.10 in1019.3 mb 0.00 in0.0 mm 0.00 in0.0 mm 0.08 in2.0 mm
09:35 AM 75.8°F24.3°C 73.3°F22.9°C 92% Calm Calm -- 30.10 in1019.3 mb 0.00 in0.0 mm 0.00 in0.0 mm 0.08 in2.0 mm
09:36 AM 75.9°F24.4°C 73.4°F23.0°C 92% Calm Calm -- 30.10 in1019.3 mb 0.00 in0.0 mm 0.00 in0.0 mm 0.08 in2.0 mm
09:37 AM 75.9°F24.4°C 73.4°F23.0°C 92% Calm Calm -- 30.10 in1019.3 mb 0.00 in0.0 mm 0.00 in0.0 mm 0.08 in2.0 mm
09:38 AM 75.9°F24.4°C 73.4°F23.0°C 92% Calm Calm -- 30.10 in1019.3 mb 0.00 in0.0 mm 0.00 in0.0 mm 0.08 in2.0 mm
09:39 AM 76.0°F24.4°C 73.5°F23.1°C 92% Calm Calm -- 30.10 in1019.3 mb 0.00 in0.0 mm 0.00 in0.0 mm 0.08 in2.0 mm
09:40 AM 76.0°F24.4°C 73.5°F23.1°C 92% Calm Calm -- 30.10 in1019.3 mb 0.00 in0.0 mm 0.00 in0.0 mm 0.08 in2.0 mm
09:41 AM 76.0°F24.4°C 73.5°F23.1°C 92% Calm Calm -- 30.10 in1019.3 mb 0.00 in0.0 mm 0.00 in0.0 mm 0.08 in2.0 mm
09:42 AM 76.0°F24.4°C 73.5°F23.1°C 92% Calm Calm -- 30.10 in1019.3 mb 0.00 in0.0 mm 0.00 in0.0 mm 0.08 in2.0 mm
09:47 AM 76.1°F24.5°C 73.9°F23.3°C 93% Calm Calm 3.0 mph4.8 kmh 30.10 in1019.3 mb 0.00 in0.0 mm 0.00 in0.0 mm 0.08 in2.0 mm
09:48 AM 76.0°F24.4°C 73.8°F23.2°C 93% Calm Calm 3.0 mph4.8 kmh 30.10 in1019.3 mb 0.00 in0.0 mm 0.00 in0.0 mm 0.08 in2.0 mm
09:50 AM 76.1°F24.5°C 73.9°F23.3°C 93% Calm Calm 3.0 mph4.8 kmh 30.10 in1019.3 mb 0.00 in0.0 mm 0.00 in0.0 mm 0.08 in2.0 mm
09:51 AM 76.1°F24.5°C 73.9°F23.3°C 93% Calm Calm 3.0 mph4.8 kmh 30.10 in1019.3 mb 0.00 in0.0 mm 0.00 in0.0 mm 0.08 in2.0 mm
09:52 AM 76.2°F24.6°C 74.0°F23.3°C 93% Calm Calm 3.0 mph4.8 kmh 30.10 in1019.3 mb 0.00 in0.0 mm 0.00 in0.0 mm 0.08 in2.0 mm
09:54 AM 76.2°F24.6°C 74.0°F23.3°C 93% Calm Calm 3.0 mph4.8 kmh 30.10 in1019.3 mb 0.00 in0.0 mm 0.00 in0.0 mm 0.08 in2.0 mm
09:56 AM 76.3°F24.6°C 74.1°F23.4°C 93% 1.0 mph E1.6 kmh E 3.0 mph4.8 kmh 30.10 in1019.3 mb 0.00 in0.0 mm 0.00 in0.0 mm 0.08 in2.0 mm
09:58 AM 76.3°F24.6°C 74.1°F23.4°C 93% 1.0 mph E1.6 kmh E 3.0 mph4.8 kmh 30.10 in1019.3 mb 0.00 in0.0 mm 0.00 in0.0 mm 0.08 in2.0 mm
09:59 AM 76.3°F24.6°C 74.1°F23.4°C 93% 1.0 mph E1.6 kmh E 3.0 mph4.8 kmh 30.10 in1019.3 mb 0.00 in0.0 mm 0.00 in0.0 mm 0.08 in2.0 mm
01:44 PM 85.8°F29.9°C 82.9°F28.3°C 91% 2.0 mph SSE3.2 kmh SSE 7.0 mph11.3 kmh 30.07 in1018.3 mb 0.00 in0.0 mm 0.00 in0.0 mm 0.08 in2.0 mm
01:47 PM 86.0°F30.0°C 82.7°F28.2°C 90% 2.0 mph S3.2 kmh S 7.0 mph11.3 kmh 30.07 in1018.3 mb 0.00 in0.0 mm 0.00 in0.0 mm 0.08 in2.0 mm
01:48 PM 86.0°F30.0°C 82.7°F28.2°C 90% 2.0 mph S3.2 kmh S 7.0 mph11.3 kmh 30.07 in1018.3 mb 0.00 in0.0 mm 0.00 in0.0 mm 0.08 in2.0 mm
01:49 PM 85.9°F29.9°C 82.6°F28.1°C 90% 2.0 mph S3.2 kmh S 7.0 mph11.3 kmh 30.07 in1018.3 mb 0.00 in0.0 mm 0.00 in0.0 mm 0.08 in2.0 mm
01:50 PM 85.9°F29.9°C 82.3°F27.9°C 89% 2.0 mph S3.2 kmh S 7.0 mph11.3 kmh 30.07 in1018.3 mb 0.00 in0.0 mm 0.00 in0.0 mm 0.08 in2.0 mm
01:51 PM 85.8°F29.9°C 82.2°F27.9°C 89% 2.0 mph S3.2 kmh S 5.0 mph8.0 kmh 30.07 in1018.3 mb 0.00 in0.0 mm 0.00 in0.0 mm 0.08 in2.0 mm
01:52 PM 85.7°F29.8°C 82.1°F27.8°C 89% 2.0 mph SSE3.2 kmh SSE 5.0 mph8.0 kmh 30.08 in1018.6 mb 0.00 in0.0 mm 0.00 in0.0 mm 0.08 in2.0 mm
01:53 PM 85.6°F29.8°C 82.0°F27.8°C 89% 2.0 mph SSE3.2 kmh SSE 5.0 mph8.0 kmh 30.08 in1018.6 mb 0.00 in0.0 mm 0.00 in0.0 mm 0.08 in2.0 mm
01:55 PM 85.4°F29.7°C 81.8°F27.7°C 89% 1.0 mph SSE1.6 kmh SSE 5.0 mph8.0 kmh 30.08 in1018.6 mb 0.00 in0.0 mm 0.00 in0.0 mm 0.08 in2.0 mm
01:56 PM 85.4°F29.7°C 81.8°F27.7°C 89% 2.0 mph SE3.2 kmh SE 5.0 mph8.0 kmh 30.08 in1018.6 mb 0.00 in0.0 mm 0.00 in0.0 mm 0.08 in2.0 mm
01:57 PM 85.3°F29.6°C 81.7°F27.6°C 89% 2.0 mph SE3.2 kmh SE 5.0 mph8.0 kmh 30.07 in1018.3 mb 0.00 in0.0 mm 0.00 in0.0 mm 0.08 in2.0 mm
01:58 PM 85.2°F29.6°C 81.6°F27.6°C 89% 2.0 mph SE3.2 kmh SE 5.0 mph8.0 kmh 30.07 in1018.3 mb 0.00 in0.0 mm 0.00 in0.0 mm 0.08 in2.0 mm
01:59 PM 85.2°F29.6°C 81.9°F27.7°C 90% 2.0 mph SE3.2 kmh SE 5.0 mph8.0 kmh 30.07 in1018.3 mb 0.00 in0.0 mm 0.00 in0.0 mm 0.08 in2.0 mm
02:00 PM 85.2°F29.6°C 81.9°F27.7°C 90% 2.0 mph SE3.2 kmh SE 5.0 mph8.0 kmh 30.07 in1018.3 mb 0.00 in0.0 mm 0.00 in0.0 mm 0.08 in2.0 mm
02:01 PM 85.2°F29.6°C 81.9°F27.7°C 90% 2.0 mph SE3.2 kmh SE 5.0 mph8.0 kmh 30.07 in1018.3 mb 0.00 in0.0 mm 0.00 in0.0 mm 0.08 in2.0 mm
02:02 PM 85.3°F29.6°C 82.0°F27.8°C 90% 2.0 mph SE3.2 kmh SE 5.0 mph8.0 kmh 30.07 in1018.3 mb 0.00 in0.0 mm 0.00 in0.0 mm 0.08 in2.0 mm
02:05 PM 85.4°F29.7°C 82.1°F27.8°C 90% 2.0 mph SE3.2 kmh SE 5.0 mph8.0 kmh 30.07 in1018.3 mb 0.00 in0.0 mm 0.00 in0.0 mm 0.08 in2.0 mm
02:09 PM 85.7°F29.8°C 82.4°F28.0°C 90% 2.0 mph SSE3.2 kmh SSE 5.0 mph8.0 kmh 30.07 in1018.3 mb 0.00 in0.0 mm 0.00 in0.0 mm 0.08 in2.0 mm
02:10 PM 85.8°F29.9°C 82.9°F28.3°C 91% 2.0 mph SSE3.2 kmh SSE 6.0 mph9.7 kmh 30.07 in1018.3 mb 0.00 in0.0 mm 0.00 in0.0 mm 0.08 in2.0 mm
02:11 PM 85.9°F29.9°C 83.0°F28.3°C 91% 2.0 mph SSE3.2 kmh SSE 6.0 mph9.7 kmh 30.07 in1018.3 mb 0.00 in0.0 mm 0.00 in0.0 mm 0.08 in2.0 mm
02:13 PM 86.1°F30.1°C 82.8°F28.2°C 90% 2.0 mph S3.2 kmh S 6.0 mph9.7 kmh 30.07 in1018.3 mb 0.00 in0.0 mm 0.00 in0.0 mm 0.08 in2.0 mm
02:14 PM 86.1°F30.1°C 82.5°F28.1°C 89% 2.0 mph S3.2 kmh S 6.0 mph9.7 kmh 30.07 in1018.3 mb 0.00 in0.0 mm 0.00 in0.0 mm 0.08 in2.0 mm
02:15 PM 86.2°F30.1°C 82.6°F28.1°C 89% 2.0 mph S3.2 kmh S 9.0 mph14.5 kmh 30.07 in1018.3 mb 0.00 in0.0 mm 0.00 in0.0 mm 0.08 in2.0 mm
02:16 PM 86.2°F30.1°C 82.6°F28.1°C 89% 2.0 mph S3.2 kmh S 9.0 mph14.5 kmh 30.07 in1018.3 mb 0.00 in0.0 mm 0.00 in0.0 mm 0.08 in2.0 mm
02:18 PM 86.3°F30.2°C 82.7°F28.2°C 89% 2.0 mph S3.2 kmh S 9.0 mph14.5 kmh 30.06 in1017.9 mb 0.00 in0.0 mm 0.00 in0.0 mm 0.08 in2.0 mm
02:19 PM 86.3°F30.2°C 82.7°F28.2°C 89% 2.0 mph S3.2 kmh S 9.0 mph14.5 kmh 30.07 in1018.3 mb 0.00 in0.0 mm 0.00 in0.0 mm 0.08 in2.0 mm
02:20 PM 86.3°F30.2°C 82.7°F28.2°C 89% 2.0 mph S3.2 kmh S 9.0 mph14.5 kmh 30.07 in1018.3 mb 0.00 in0.0 mm 0.00 in0.0 mm 0.08 in2.0 mm
02:21 PM 86.3°F30.2°C 82.7°F28.2°C 89% 2.0 mph S3.2 kmh S 9.0 mph14.5 kmh 30.07 in1018.3 mb 0.00 in0.0 mm 0.00 in0.0 mm 0.08 in2.0 mm
02:22 PM 86.3°F30.2°C 82.7°F28.2°C 89% 2.0 mph S3.2 kmh S 9.0 mph14.5 kmh 30.07 in1018.3 mb 0.00 in0.0 mm 0.00 in0.0 mm 0.08 in2.0 mm
02:23 PM 86.3°F30.2°C 82.3°F27.9°C 88% 2.0 mph S3.2 kmh S 9.0 mph14.5 kmh 30.06 in1017.9 mb 0.00 in0.0 mm 0.00 in0.0 mm 0.08 in2.0 mm
02:25 PM 86.2°F30.1°C 82.6°F28.1°C 89% 1.0 mph S1.6 kmh S 9.0 mph14.5 kmh 30.06 in1017.9 mb 0.00 in0.0 mm 0.00 in0.0 mm 0.08 in2.0 mm
02:26 PM 86.1°F30.1°C 82.5°F28.1°C 89% 1.0 mph S1.6 kmh S 4.0 mph6.4 kmh 30.07 in1018.3 mb 0.00 in0.0 mm 0.00 in0.0 mm 0.08 in2.0 mm
02:27 PM 86.1°F30.1°C 82.5°F28.1°C 89% 1.0 mph S1.6 kmh S 4.0 mph6.4 kmh 30.06 in1017.9 mb 0.00 in0.0 mm 0.00 in0.0 mm 0.08 in2.0 mm
02:32 PM 85.9°F29.9°C 82.3°F27.9°C 89% Calm Calm 3.0 mph4.8 kmh 30.06 in1017.9 mb 0.00 in0.0 mm 0.00 in0.0 mm 0.08 in2.0 mm
02:33 PM 85.9°F29.9°C 82.3°F27.9°C 89% Calm Calm 3.0 mph4.8 kmh 30.06 in1017.9 mb 0.00 in0.0 mm 0.00 in0.0 mm 0.08 in2.0 mm
02:34 PM 85.9°F29.9°C 82.3°F27.9°C 89% Calm Calm 4.0 mph6.4 kmh 30.06 in1017.9 mb 0.00 in0.0 mm 0.00 in0.0 mm 0.08 in2.0 mm
02:35 PM 85.8°F29.9°C 81.8°F27.7°C 88% 1.0 mph ESE1.6 kmh ESE 4.0 mph6.4 kmh 30.06 in1017.9 mb 0.00 in0.0 mm 0.00 in0.0 mm 0.08 in2.0 mm
02:37 PM 85.7°F29.8°C 81.7°F27.6°C 88% 1.0 mph E1.6 kmh E 4.0 mph6.4 kmh 30.06 in1017.9 mb 0.00 in0.0 mm 0.00 in0.0 mm 0.08 in2.0 mm
02:38 PM 85.7°F29.8°C 82.1°F27.8°C 89% 1.0 mph E1.6 kmh E 4.0 mph6.4 kmh 30.06 in1017.9 mb 0.00 in0.0 mm 0.00 in0.0 mm 0.08 in2.0 mm
02:41 PM 85.8°F29.9°C 82.2°F27.9°C 89% 1.0 mph E1.6 kmh E 4.0 mph6.4 kmh 30.06 in1017.9 mb 0.00 in0.0 mm 0.00 in0.0 mm 0.08 in2.0 mm
02:42 PM 85.8°F29.9°C 82.2°F27.9°C 89% 1.0 mph E1.6 kmh E 4.0 mph6.4 kmh 30.06 in1017.9 mb 0.00 in0.0 mm 0.00 in0.0 mm 0.08 in2.0 mm
02:47 PM 86.3°F30.2°C 82.7°F28.2°C 89% 1.0 mph SSE1.6 kmh SSE 5.0 mph8.0 kmh 30.06 in1017.9 mb 0.00 in0.0 mm 0.00 in0.0 mm 0.08 in2.0 mm
02:48 PM 86.4°F30.2°C 82.8°F28.2°C 89% 1.0 mph SSE1.6 kmh SSE 5.0 mph8.0 kmh 30.06 in1017.9 mb 0.00 in0.0 mm 0.00 in0.0 mm 0.08 in2.0 mm
02:49 PM 86.6°F30.3°C 83.0°F28.3°C 89% 1.0 mph SSE1.6 kmh SSE 5.0 mph8.0 kmh 30.06 in1017.9 mb 0.00 in0.0 mm 0.00 in0.0 mm 0.08 in2.0 mm
02:50 PM 86.6°F30.3°C 83.0°F28.3°C 89% 1.0 mph SSE1.6 kmh SSE 5.0 mph8.0 kmh 30.06 in1017.9 mb 0.00 in0.0 mm 0.00 in0.0 mm 0.08 in2.0 mm
02:51 PM 86.7°F30.4°C 83.1°F28.4°C 89% 1.0 mph SSE1.6 kmh SSE 5.0 mph8.0 kmh 30.06 in1017.9 mb 0.00 in0.0 mm 0.00 in0.0 mm 0.08 in2.0 mm
02:52 PM 86.8°F30.4°C 82.8°F28.2°C 88% 1.0 mph SE1.6 kmh SE 5.0 mph8.0 kmh 30.06 in1017.9 mb 0.00 in0.0 mm 0.00 in0.0 mm 0.08 in2.0 mm
02:53 PM 86.8°F30.4°C 82.8°F28.2°C 88% 1.0 mph SE1.6 kmh SE 5.0 mph8.0 kmh 30.05 in1017.6 mb 0.00 in0.0 mm 0.00 in0.0 mm 0.08 in2.0 mm
02:55 PM 86.6°F30.3°C 82.3°F27.9°C 87% Calm Calm 5.0 mph8.0 kmh 30.05 in1017.6 mb 0.00 in0.0 mm 0.00 in0.0 mm 0.08 in2.0 mm
02:56 PM 86.6°F30.3°C 82.3°F27.9°C 87% Calm Calm 3.0 mph4.8 kmh 30.05 in1017.6 mb 0.00 in0.0 mm 0.00 in0.0 mm 0.08 in2.0 mm
02:57 PM 86.5°F30.3°C 82.2°F27.9°C 87% Calm Calm 2.0 mph3.2 kmh 30.05 in1017.6 mb 0.00 in0.0 mm 0.00 in0.0 mm 0.08 in2.0 mm
02:58 PM 86.4°F30.2°C 81.7°F27.6°C 86% Calm Calm 4.0 mph6.4 kmh 30.05 in1017.6 mb 0.00 in0.0 mm 0.00 in0.0 mm 0.08 in2.0 mm
02:59 PM 86.3°F30.2°C 82.0°F27.8°C 87% Calm Calm 4.0 mph6.4 kmh 30.06 in1017.9 mb 0.00 in0.0 mm 0.00 in0.0 mm 0.08 in2.0 mm
03:00 PM 86.3°F30.2°C 82.0°F27.8°C 87% 1.0 mph SE1.6 kmh SE 9.0 mph14.5 kmh 30.05 in1017.6 mb 0.00 in0.0 mm 0.00 in0.0 mm 0.08 in2.0 mm
03:01 PM 86.3°F30.2°C 82.3°F27.9°C 88% 1.0 mph SSE1.6 kmh SSE 9.0 mph14.5 kmh 30.05 in1017.6 mb 0.00 in0.0 mm 0.00 in0.0 mm 0.08 in2.0 mm
03:02 PM 86.3°F30.2°C 82.3°F27.9°C 88% 1.0 mph S1.6 kmh S 10.0 mph16.1 kmh 30.05 in1017.6 mb 0.00 in0.0 mm 0.00 in0.0 mm 0.08 in2.0 mm
03:03 PM 86.4°F30.2°C 82.4°F28.0°C 88% 2.0 mph SSE3.2 kmh SSE 10.0 mph16.1 kmh 30.05 in1017.6 mb 0.00 in0.0 mm 0.00 in0.0 mm 0.08 in2.0 mm
03:04 PM 86.5°F30.3°C 82.5°F28.1°C 88% 2.0 mph SSE3.2 kmh SSE 10.0 mph16.1 kmh 30.05 in1017.6 mb 0.00 in0.0 mm 0.00 in0.0 mm 0.08 in2.0 mm
03:05 PM 86.6°F30.3°C 82.6°F28.1°C 88% 2.0 mph SSE3.2 kmh SSE 10.0 mph16.1 kmh 30.05 in1017.6 mb 0.00 in0.0 mm 0.00 in0.0 mm 0.08 in2.0 mm
03:06 PM 86.6°F30.3°C 82.3°F27.9°C 87% 2.0 mph SSE3.2 kmh SSE 10.0 mph16.1 kmh 30.05 in1017.6 mb 0.00 in0.0 mm 0.00 in0.0 mm 0.08 in2.0 mm
03:07 PM 86.6°F30.3°C 82.3°F27.9°C 87% 2.0 mph SSE3.2 kmh SSE 10.0 mph16.1 kmh 30.05 in1017.6 mb 0.00 in0.0 mm 0.00 in0.0 mm 0.08 in2.0 mm
03:09 PM 86.7°F30.4°C 82.4°F28.0°C 87% 3.0 mph S4.8 kmh S 10.0 mph16.1 kmh 30.05 in1017.6 mb 0.00 in0.0 mm 0.00 in0.0 mm 0.08 in2.0 mm
03:10 PM 86.7°F30.4°C 82.4°F28.0°C 87% 3.0 mph S4.8 kmh S 10.0 mph16.1 kmh 30.05 in1017.6 mb 0.00 in0.0 mm 0.00 in0.0 mm 0.08 in2.0 mm
03:11 PM 86.8°F30.4°C 82.5°F28.1°C 87% 2.0 mph S3.2 kmh S 10.0 mph16.1 kmh 30.05 in1017.6 mb 0.00 in0.0 mm 0.00 in0.0 mm 0.08 in2.0 mm
03:12 PM 86.8°F30.4°C 82.5°F28.1°C 87% 2.0 mph SSE3.2 kmh SSE 8.0 mph12.9 kmh 30.05 in1017.6 mb 0.00 in0.0 mm 0.00 in0.0 mm 0.08 in2.0 mm
03:13 PM 86.8°F30.4°C 82.5°F28.1°C 87% 2.0 mph SSE3.2 kmh SSE 8.0 mph12.9 kmh 30.05 in1017.6 mb 0.00 in0.0 mm 0.00 in0.0 mm 0.08 in2.0 mm
03:14 PM 86.9°F30.5°C 82.6°F28.1°C 87% 2.0 mph SSE3.2 kmh SSE 8.0 mph12.9 kmh 30.05 in1017.6 mb 0.00 in0.0 mm 0.00 in0.0 mm 0.08 in2.0 mm
03:15 PM 87.0°F30.6°C 82.7°F28.2°C 87% 2.0 mph SSE3.2 kmh SSE 8.0 mph12.9 kmh 30.05 in1017.6 mb 0.00 in0.0 mm 0.00 in0.0 mm 0.08 in2.0 mm
03:18 PM 87.3°F30.7°C 83.0°F28.3°C 87% 2.0 mph SSE3.2 kmh SSE 8.0 mph12.9 kmh 30.05 in1017.6 mb 0.00 in0.0 mm 0.00 in0.0 mm 0.08 in2.0 mm
03:21 PM 87.6°F30.9°C 83.2°F28.4°C 87% 1.0 mph SSE1.6 kmh SSE 7.0 mph11.3 kmh 30.05 in1017.6 mb 0.00 in0.0 mm 0.00 in0.0 mm 0.08 in2.0 mm
03:22 PM 87.6°F30.9°C 83.2°F28.4°C 87% 2.0 mph SSE3.2 kmh SSE 7.0 mph11.3 kmh 30.05 in1017.6 mb 0.00 in0.0 mm 0.00 in0.0 mm 0.08 in2.0 mm
03:23 PM 87.8°F31.0°C 83.4°F28.6°C 87% 2.0 mph SSE3.2 kmh SSE 7.0 mph11.3 kmh 30.05 in1017.6 mb 0.00 in0.0 mm 0.00 in0.0 mm 0.08 in2.0 mm
03:24 PM 87.8°F31.0°C 83.1°F28.4°C 86% 2.0 mph SSE3.2 kmh SSE 7.0 mph11.3 kmh 30.05 in1017.6 mb 0.00 in0.0 mm 0.00 in0.0 mm 0.08 in2.0 mm
03:28 PM 88.0°F31.1°C 82.9°F28.3°C 85% 2.0 mph SSE3.2 kmh SSE 7.0 mph11.3 kmh 30.05 in1017.6 mb 0.00 in0.0 mm 0.00 in0.0 mm 0.08 in2.0 mm
03:30 PM 88.0°F31.1°C 82.9°F28.3°C 85% 2.0 mph SSE3.2 kmh SSE 7.0 mph11.3 kmh 30.05 in1017.6 mb 0.00 in0.0 mm 0.00 in0.0 mm 0.08 in2.0 mm
03:34 PM 88.1°F31.2°C 83.4°F28.6°C 86% 1.0 mph SE1.6 kmh SE 3.0 mph4.8 kmh 30.05 in1017.6 mb 0.00 in0.0 mm 0.00 in0.0 mm 0.08 in2.0 mm
03:39 PM 88.0°F31.1°C 82.6°F28.1°C 84% 1.0 mph SE1.6 kmh SE 5.0 mph8.0 kmh 30.05 in1017.6 mb 0.00 in0.0 mm 0.00 in0.0 mm 0.08 in2.0 mm
03:40 PM 87.9°F31.1°C 82.5°F28.1°C 84% 1.0 mph SE1.6 kmh SE 7.0 mph11.3 kmh 30.05 in1017.6 mb 0.00 in0.0 mm 0.00 in0.0 mm 0.08 in2.0 mm
03:42 PM 87.9°F31.1°C 82.1°F27.8°C 83% 1.0 mph SE1.6 kmh SE 7.0 mph11.3 kmh 30.05 in1017.6 mb 0.00 in0.0 mm 0.00 in0.0 mm 0.08 in2.0 mm
03:43 PM 87.9°F31.1°C 82.1°F27.8°C 83% 1.0 mph SE1.6 kmh SE 7.0 mph11.3 kmh 30.05 in1017.6 mb 0.00 in0.0 mm 0.00 in0.0 mm 0.08 in2.0 mm
03:44 PM 87.9°F31.1°C 82.1°F27.8°C 83% 1.0 mph SE1.6 kmh SE 7.0 mph11.3 kmh 30.05 in1017.6 mb 0.00 in0.0 mm 0.00 in0.0 mm 0.08 in2.0 mm
03:48 PM 88.0°F31.1°C 82.2°F27.9°C 83% 1.0 mph SE1.6 kmh SE 7.0 mph11.3 kmh 30.05 in1017.6 mb 0.00 in0.0 mm 0.00 in0.0 mm 0.08 in2.0 mm
03:52 PM 88.1°F31.2°C 82.3°F27.9°C 83% Calm Calm 5.0 mph8.0 kmh 30.05 in1017.6 mb 0.00 in0.0 mm 0.00 in0.0 mm 0.08 in2.0 mm
03:53 PM 88.2°F31.2°C 82.4°F28.0°C 83% 1.0 mph SE1.6 kmh SE 5.0 mph8.0 kmh 30.05 in1017.6 mb 0.00 in0.0 mm 0.00 in0.0 mm 0.08 in2.0 mm
03:54 PM 88.2°F31.2°C 82.4°F28.0°C 83% 1.0 mph SE1.6 kmh SE 5.0 mph8.0 kmh 30.05 in1017.6 mb 0.00 in0.0 mm 0.00 in0.0 mm 0.08 in2.0 mm
03:56 PM 88.3°F31.3°C 82.5°F28.1°C 83% 1.0 mph SE1.6 kmh SE 5.0 mph8.0 kmh 30.05 in1017.6 mb 0.00 in0.0 mm 0.00 in0.0 mm 0.08 in2.0 mm
03:57 PM 88.3°F31.3°C 82.5°F28.1°C 83% 1.0 mph SE1.6 kmh SE 5.0 mph8.0 kmh 30.04 in1017.3 mb 0.00 in0.0 mm 0.00 in0.0 mm 0.08 in2.0 mm
03:58 PM 88.3°F31.3°C 82.5°F28.1°C 83% 1.0 mph SE1.6 kmh SE 5.0 mph8.0 kmh 30.04 in1017.3 mb 0.00 in0.0 mm 0.00 in0.0 mm 0.08 in2.0 mm
04:00 PM 88.3°F31.3°C 82.5°F28.1°C 83% 1.0 mph SE1.6 kmh SE 5.0 mph8.0 kmh 30.04 in1017.3 mb 0.00 in0.0 mm 0.00 in0.0 mm 0.08 in2.0 mm
04:01 PM 88.4°F31.3°C 82.6°F28.1°C 83% 1.0 mph SE1.6 kmh SE 5.0 mph8.0 kmh 30.04 in1017.3 mb 0.00 in0.0 mm 0.00 in0.0 mm 0.08 in2.0 mm
04:02 PM 88.4°F31.3°C 82.6°F28.1°C 83% 1.0 mph SE1.6 kmh SE 4.0 mph6.4 kmh 30.04 in1017.3 mb 0.00 in0.0 mm 0.00 in0.0 mm 0.08 in2.0 mm
04:03 PM 88.4°F31.3°C 82.6°F28.1°C 83% Calm Calm 4.0 mph6.4 kmh 30.04 in1017.3 mb 0.00 in0.0 mm 0.00 in0.0 mm 0.08 in2.0 mm
04:04 PM 88.4°F31.3°C 82.6°F28.1°C 83% Calm Calm 4.0 mph6.4 kmh 30.04 in1017.3 mb 0.00 in0.0 mm 0.00 in0.0 mm 0.08 in2.0 mm
04:05 PM 88.4°F31.3°C 82.6°F28.1°C 83% Calm Calm 2.0 mph3.2 kmh 30.04 in1017.3 mb 0.00 in0.0 mm 0.00 in0.0 mm 0.08 in2.0 mm
04:06 PM 88.4°F31.3°C 82.6°F28.1°C 83% Calm Calm 5.0 mph8.0 kmh 30.04 in1017.3 mb 0.00 in0.0 mm 0.00 in0.0 mm 0.08 in2.0 mm
04:07 PM 88.4°F31.3°C 82.6°F28.1°C 83% Calm Calm 5.0 mph8.0 kmh 30.04 in1017.3 mb 0.00 in0.0 mm 0.00 in0.0 mm 0.08 in2.0 mm
04:08 PM 88.4°F31.3°C 82.2°F27.9°C 82% Calm Calm 5.0 mph8.0 kmh 30.04 in1017.3 mb 0.00 in0.0 mm 0.00 in0.0 mm 0.08 in2.0 mm
04:10 PM 88.4°F31.3°C 82.6°F28.1°C 83% 1.0 mph SSE1.6 kmh SSE 10.0 mph16.1 kmh 30.04 in1017.3 mb 0.00 in0.0 mm 0.00 in0.0 mm 0.08 in2.0 mm
04:11 PM 88.4°F31.3°C 82.6°F28.1°C 83% 1.0 mph S1.6 kmh S 10.0 mph16.1 kmh 30.03 in1016.9 mb 0.00 in0.0 mm 0.00 in0.0 mm 0.08 in2.0 mm
04:14 PM 88.7°F31.5°C 82.5°F28.1°C 82% 2.0 mph S3.2 kmh S 10.0 mph16.1 kmh 30.03 in1016.9 mb 0.00 in0.0 mm 0.00 in0.0 mm 0.08 in2.0 mm
04:19 PM 89.3°F31.8°C 83.1°F28.4°C 82% 3.0 mph S4.8 kmh S 10.0 mph16.1 kmh 30.03 in1016.9 mb 0.00 in0.0 mm 0.00 in0.0 mm 0.08 in2.0 mm
04:20 PM 89.4°F31.9°C 83.2°F28.4°C 82% 3.0 mph S4.8 kmh S 10.0 mph16.1 kmh 30.03 in1016.9 mb 0.00 in0.0 mm 0.00 in0.0 mm 0.08 in2.0 mm
04:23 PM 89.8°F32.1°C 83.6°F28.7°C 82% 2.0 mph S3.2 kmh S 8.0 mph12.9 kmh 30.03 in1016.9 mb 0.00 in0.0 mm 0.00 in0.0 mm 0.08 in2.0 mm
04:24 PM 89.9°F32.2°C 83.7°F28.7°C 82% 2.0 mph S3.2 kmh S 8.0 mph12.9 kmh 30.03 in1016.9 mb 0.00 in0.0 mm 0.00 in0.0 mm 0.08 in2.0 mm
04:25 PM 90.1°F32.3°C 83.9°F28.8°C 82% 2.0 mph S3.2 kmh S 8.0 mph12.9 kmh 30.02 in1016.6 mb 0.00 in0.0 mm 0.00 in0.0 mm 0.08 in2.0 mm
04:26 PM 90.1°F32.3°C 83.9°F28.8°C 82% 2.0 mph S3.2 kmh S 8.0 mph12.9 kmh 30.03 in1016.9 mb 0.00 in0.0 mm 0.00 in0.0 mm 0.08 in2.0 mm
04:27 PM 90.2°F32.3°C 84.0°F28.9°C 82% 2.0 mph S3.2 kmh S 9.0 mph14.5 kmh 30.02 in1016.6 mb 0.00 in0.0 mm 0.00 in0.0 mm 0.08 in2.0 mm
04:29 PM 90.5°F32.5°C 83.9°F28.8°C 81% 2.0 mph S3.2 kmh S 9.0 mph14.5 kmh 30.02 in1016.6 mb 0.00 in0.0 mm 0.00 in0.0 mm 0.08 in2.0 mm
04:30 PM 90.6°F32.6°C 84.0°F28.9°C 81% 2.0 mph S3.2 kmh S 9.0 mph14.5 kmh 30.03 in1016.9 mb 0.00 in0.0 mm 0.00 in0.0 mm 0.08 in2.0 mm
04:31 PM 90.8°F32.7°C 84.2°F29.0°C 81% 2.0 mph S3.2 kmh S 9.0 mph14.5 kmh 30.02 in1016.6 mb 0.00 in0.0 mm 0.00 in0.0 mm 0.08 in2.0 mm
07:35 PM 79.8°F26.6°C 76.3°F24.6°C 89% Calm Calm 1.0 mph1.6 kmh 30.04 in1017.3 mb 0.42 in10.7 mm 6.30 in160.0 mm 0.50 in12.7 mm
07:36 PM 79.7°F26.5°C 76.2°F24.6°C 89% Calm Calm 2.0 mph3.2 kmh 30.03 in1016.9 mb 0.42 in10.7 mm 0.00 in0.0 mm 0.50 in12.7 mm
07:37 PM 79.6°F26.4°C 76.1°F24.5°C 89% Calm Calm 2.0 mph3.2 kmh 30.04 in1017.3 mb 0.42 in10.7 mm 0.00 in0.0 mm 0.50 in12.7 mm
07:39 PM 79.4°F26.3°C 76.2°F24.6°C 90% Calm Calm 2.0 mph3.2 kmh 30.04 in1017.3 mb 0.42 in10.7 mm 0.00 in0.0 mm 0.50 in12.7 mm
07:41 PM 79.2°F26.2°C 76.0°F24.4°C 90% Calm Calm 2.0 mph3.2 kmh 30.04 in1017.3 mb 0.42 in10.7 mm 0.00 in0.0 mm 0.50 in12.7 mm
07:43 PM 79.0°F26.1°C 75.8°F24.3°C 90% Calm Calm 2.0 mph3.2 kmh 30.04 in1017.3 mb 0.42 in10.7 mm 0.00 in0.0 mm 0.50 in12.7 mm
07:44 PM 79.0°F26.1°C 75.8°F24.3°C 90% Calm Calm 2.0 mph3.2 kmh 30.04 in1017.3 mb 0.42 in10.7 mm 0.00 in0.0 mm 0.50 in12.7 mm
07:45 PM 78.9°F26.1°C 75.7°F24.3°C 90% Calm Calm 2.0 mph3.2 kmh 30.04 in1017.3 mb 0.42 in10.7 mm 0.00 in0.0 mm 0.50 in12.7 mm
07:46 PM 78.8°F26.0°C 75.6°F24.2°C 90% Calm Calm 1.0 mph1.6 kmh 30.04 in1017.3 mb 0.42 in10.7 mm 0.00 in0.0 mm 0.50 in12.7 mm
07:47 PM 78.8°F26.0°C 75.9°F24.4°C 91% Calm Calm 1.0 mph1.6 kmh 30.04 in1017.3 mb 0.42 in10.7 mm 0.00 in0.0 mm 0.50 in12.7 mm
07:48 PM 78.7°F25.9°C 75.8°F24.3°C 91% Calm Calm 1.0 mph1.6 kmh 30.04 in1017.3 mb 0.42 in10.7 mm 0.00 in0.0 mm 0.50 in12.7 mm
07:50 PM 78.6°F25.9°C 75.8°F24.3°C 91% Calm Calm -- 30.04 in1017.3 mb 0.42 in10.7 mm 0.00 in0.0 mm 0.50 in12.7 mm
07:51 PM 78.6°F25.9°C 75.8°F24.3°C 91% Calm Calm -- 30.04 in1017.3 mb 0.42 in10.7 mm 0.00 in0.0 mm 0.50 in12.7 mm
07:52 PM 78.6°F25.9°C 75.8°F24.3°C 91% Calm Calm -- 30.04 in1017.3 mb 0.42 in10.7 mm 0.00 in0.0 mm 0.50 in12.7 mm
07:53 PM 78.5°F25.8°C 76.0°F24.4°C 92% Calm Calm -- 30.04 in1017.3 mb 0.40 in10.2 mm 0.00 in0.0 mm 0.50 in12.7 mm
07:54 PM 78.5°F25.8°C 76.0°F24.4°C 92% Calm Calm 1.0 mph1.6 kmh 30.03 in1016.9 mb 0.39 in9.9 mm 0.00 in0.0 mm 0.50 in12.7 mm
07:55 PM 78.5°F25.8°C 76.0°F24.4°C 92% Calm Calm 1.0 mph1.6 kmh 30.04 in1017.3 mb 0.38 in9.7 mm 0.00 in0.0 mm 0.50 in12.7 mm
07:56 PM 78.5°F25.8°C 76.0°F24.4°C 92% Calm Calm 1.0 mph1.6 kmh 30.04 in1017.3 mb 0.38 in9.7 mm 0.00 in0.0 mm 0.50 in12.7 mm
07:57 PM 78.4°F25.8°C 75.9°F24.4°C 92% Calm Calm 1.0 mph1.6 kmh 30.04 in1017.3 mb 0.34 in8.6 mm 0.00 in0.0 mm 0.50 in12.7 mm
07:58 PM 78.4°F25.8°C 75.9°F24.4°C 92% Calm Calm 1.0 mph1.6 kmh 30.04 in1017.3 mb 0.30 in7.6 mm 0.00 in0.0 mm 0.50 in12.7 mm
07:59 PM 78.4°F25.8°C 75.9°F24.4°C 92% Calm Calm 1.0 mph1.6 kmh 30.04 in1017.3 mb 0.24 in6.1 mm 0.00 in0.0 mm 0.50 in12.7 mm
08:00 PM 78.4°F25.8°C 75.9°F24.4°C 92% Calm Calm 1.0 mph1.6 kmh 30.04 in1017.3 mb 0.20 in5.1 mm 0.00 in0.0 mm 0.50 in12.7 mm
08:01 PM 78.4°F25.8°C 76.2°F24.6°C 93% Calm Calm 1.0 mph1.6 kmh 30.04 in1017.3 mb 0.16 in4.1 mm 0.00 in0.0 mm 0.50 in12.7 mm
08:02 PM 78.3°F25.7°C 76.1°F24.5°C 93% Calm Calm 1.0 mph1.6 kmh 30.04 in1017.3 mb 0.10 in2.5 mm 0.00 in0.0 mm 0.50 in12.7 mm
08:04 PM 78.4°F25.8°C 76.2°F24.6°C 93% Calm Calm -- 30.03 in1016.9 mb 0.04 in1.0 mm 0.00 in0.0 mm 0.50 in12.7 mm
08:05 PM 78.3°F25.7°C 76.1°F24.5°C 93% Calm Calm -- 30.04 in1017.3 mb 0.03 in0.8 mm 0.00 in0.0 mm 0.50 in12.7 mm
08:06 PM 78.3°F25.7°C 76.1°F24.5°C 93% Calm Calm -- 30.04 in1017.3 mb 0.02 in0.5 mm 0.00 in0.0 mm 0.50 in12.7 mm
08:08 PM 78.3°F25.7°C 76.1°F24.5°C 93% Calm Calm -- 30.04 in1017.3 mb 0.02 in0.5 mm 0.00 in0.0 mm 0.50 in12.7 mm
08:11 PM 78.3°F25.7°C 76.4°F24.7°C 94% Calm Calm -- 30.03 in1016.9 mb 0.01 in0.3 mm 0.00 in0.0 mm 0.50 in12.7 mm
08:12 PM 78.3°F25.7°C 76.4°F24.7°C 94% Calm Calm -- 30.04 in1017.3 mb 0.00 in0.0 mm 0.00 in0.0 mm 0.50 in12.7 mm
08:13 PM 78.2°F25.7°C 76.3°F24.6°C 94% Calm Calm -- 30.03 in1016.9 mb 0.00 in0.0 mm 0.00 in0.0 mm 0.50 in12.7 mm
08:14 PM 78.2°F25.7°C 76.0°F24.4°C 93% Calm Calm -- 30.03 in1016.9 mb 0.00 in0.0 mm 0.00 in0.0 mm 0.50 in12.7 mm
08:15 PM 78.2°F25.7°C 76.0°F24.4°C 93% Calm Calm -- 30.03 in1016.9 mb 0.00 in0.0 mm 0.00 in0.0 mm 0.50 in12.7 mm
08:17 PM 78.1°F25.6°C 76.2°F24.6°C 94% Calm Calm -- 30.03 in1016.9 mb 0.00 in0.0 mm 0.00 in0.0 mm 0.50 in12.7 mm
08:18 PM 78.1°F25.6°C 76.2°F24.6°C 94% Calm Calm -- 30.04 in1017.3 mb 0.00 in0.0 mm 0.00 in0.0 mm 0.50 in12.7 mm
08:19 PM 78.1°F25.6°C 76.2°F24.6°C 94% Calm Calm -- 30.03 in1016.9 mb 0.00 in0.0 mm 0.00 in0.0 mm 0.50 in12.7 mm
08:20 PM 78.1°F25.6°C 76.2°F24.6°C 94% Calm Calm -- 30.03 in1016.9 mb 0.00 in0.0 mm 0.00 in0.0 mm 0.50 in12.7 mm
08:21 PM 78.1°F25.6°C 76.2°F24.6°C 94% Calm Calm -- 30.04 in1017.3 mb 0.00 in0.0 mm 0.00 in0.0 mm 0.50 in12.7 mm
08:22 PM 78.1°F25.6°C 76.2°F24.6°C 94% Calm Calm -- 30.03 in1016.9 mb 0.00 in0.0 mm 0.00 in0.0 mm 0.50 in12.7 mm
08:23 PM 78.1°F25.6°C 76.2°F24.6°C 94% Calm Calm -- 30.03 in1016.9 mb 0.00 in0.0 mm 0.00 in0.0 mm 0.50 in12.7 mm
08:24 PM 78.0°F25.6°C 76.1°F24.5°C 94% Calm Calm -- 30.03 in1016.9 mb 0.00 in0.0 mm 0.00 in0.0 mm 0.50 in12.7 mm
08:25 PM 78.0°F25.6°C 76.1°F24.5°C 94% Calm Calm -- 30.03 in1016.9 mb 0.00 in0.0 mm 0.00 in0.0 mm 0.50 in12.7 mm
08:26 PM 78.0°F25.6°C 76.1°F24.5°C 94% Calm Calm -- 30.03 in1016.9 mb 0.00 in0.0 mm 0.00 in0.0 mm 0.50 in12.7 mm
08:27 PM 78.0°F25.6°C 76.1°F24.5°C 94% Calm Calm -- 30.03 in1016.9 mb 0.00 in0.0 mm 0.00 in0.0 mm 0.50 in12.7 mm
08:28 PM 78.0°F25.6°C 76.1°F24.5°C 94% Calm Calm -- 30.03 in1016.9 mb 0.00 in0.0 mm 0.00 in0.0 mm 0.50 in12.7 mm
08:29 PM 78.0°F25.6°C 76.1°F24.5°C 94% Calm Calm -- 30.03 in1016.9 mb 0.00 in0.0 mm 0.00 in0.0 mm 0.50 in12.7 mm
08:30 PM 78.0°F25.6°C 76.1°F24.5°C 94% Calm Calm -- 30.03 in1016.9 mb 0.00 in0.0 mm 0.00 in0.0 mm 0.50 in12.7 mm
08:31 PM 78.0°F25.6°C 76.1°F24.5°C 94% Calm Calm -- 30.03 in1016.9 mb 0.00 in0.0 mm 0.00 in0.0 mm 0.50 in12.7 mm
08:32 PM 78.0°F25.6°C 76.1°F24.5°C 94% Calm Calm -- 30.03 in1016.9 mb 0.00 in0.0 mm 0.00 in0.0 mm 0.50 in12.7 mm
08:33 PM 77.9°F25.5°C 76.0°F24.4°C 94% Calm Calm -- 30.03 in1016.9 mb 0.00 in0.0 mm 0.00 in0.0 mm 0.50 in12.7 mm
08:34 PM 77.9°F25.5°C 76.4°F24.7°C 95% Calm Calm -- 30.03 in1016.9 mb 0.00 in0.0 mm 0.00 in0.0 mm 0.50 in12.7 mm
08:36 PM 77.9°F25.5°C 76.4°F24.7°C 95% Calm Calm -- 30.03 in1016.9 mb 0.00 in0.0 mm 0.00 in0.0 mm 0.50 in12.7 mm
08:37 PM 77.9°F25.5°C 76.4°F24.7°C 95% Calm Calm -- 30.03 in1016.9 mb 0.00 in0.0 mm 0.00 in0.0 mm 0.50 in12.7 mm
08:39 PM 77.9°F25.5°C 76.4°F24.7°C 95% Calm Calm -- 30.03 in1016.9 mb 0.00 in0.0 mm 0.00 in0.0 mm 0.50 in12.7 mm
08:40 PM 77.9°F25.5°C 76.4°F24.7°C 95% Calm Calm -- 30.03 in1016.9 mb 0.00 in0.0 mm 0.00 in0.0 mm 0.50 in12.7 mm
08:41 PM 77.9°F25.5°C 76.4°F24.7°C 95% Calm Calm -- 30.03 in1016.9 mb 0.00 in0.0 mm 0.00 in0.0 mm 0.50 in12.7 mm
08:42 PM 77.8°F25.4°C 76.3°F24.6°C 95% Calm Calm -- 30.03 in1016.9 mb 0.00 in0.0 mm 0.00 in0.0 mm 0.50 in12.7 mm
08:43 PM 77.8°F25.4°C 76.3°F24.6°C 95% Calm Calm -- 30.03 in1016.9 mb 0.00 in0.0 mm 0.00 in0.0 mm 0.50 in12.7 mm
08:44 PM 77.7°F25.4°C 76.2°F24.6°C 95% Calm Calm -- 30.03 in1016.9 mb 0.00 in0.0 mm 0.00 in0.0 mm 0.50 in12.7 mm
08:45 PM 77.7°F25.4°C 76.2°F24.6°C 95% Calm Calm -- 30.03 in1016.9 mb 0.00 in0.0 mm 0.00 in0.0 mm 0.50 in12.7 mm
08:46 PM 77.7°F25.4°C 76.2°F24.6°C 95% Calm Calm -- 30.03 in1016.9 mb 0.00 in0.0 mm 0.00 in0.0 mm 0.50 in12.7 mm
08:47 PM 77.7°F25.4°C 76.2°F24.6°C 95% Calm Calm -- 30.03 in1016.9 mb 0.00 in0.0 mm 0.00 in0.0 mm 0.50 in12.7 mm
08:48 PM 77.7°F25.4°C 76.2°F24.6°C 95% Calm Calm -- 30.03 in1016.9 mb 0.00 in0.0 mm 0.00 in0.0 mm 0.50 in12.7 mm
08:49 PM 77.6°F25.3°C 76.1°F24.5°C 95% Calm Calm -- 30.03 in1016.9 mb 0.00 in0.0 mm 0.00 in0.0 mm 0.50 in12.7 mm
08:50 PM 77.6°F25.3°C 76.1°F24.5°C 95% Calm Calm -- 30.03 in1016.9 mb 0.00 in0.0 mm 0.00 in0.0 mm 0.50 in12.7 mm
08:51 PM 77.6°F25.3°C 76.1°F24.5°C 95% Calm Calm -- 30.03 in1016.9 mb 0.00 in0.0 mm 0.00 in0.0 mm 0.50 in12.7 mm
08:52 PM 77.6°F25.3°C 76.1°F24.5°C 95% Calm Calm -- 30.03 in1016.9 mb 0.00 in0.0 mm 0.00 in0.0 mm 0.50 in12.7 mm
08:53 PM 77.6°F25.3°C 76.1°F24.5°C 95% Calm Calm -- 30.03 in1016.9 mb 0.00 in0.0 mm 0.00 in0.0 mm 0.50 in12.7 mm
08:54 PM 77.6°F25.3°C 76.1°F24.5°C 95% Calm Calm -- 30.03 in1016.9 mb 0.00 in0.0 mm 0.00 in0.0 mm 0.50 in12.7 mm
08:55 PM 77.6°F25.3°C 76.1°F24.5°C 95% Calm Calm -- 30.03 in1016.9 mb 0.00 in0.0 mm 0.00 in0.0 mm 0.50 in12.7 mm
08:57 PM 77.6°F25.3°C 76.4°F24.7°C 96% Calm Calm -- 30.03 in1016.9 mb 0.00 in0.0 mm 0.00 in0.0 mm 0.50 in12.7 mm
08:58 PM 77.6°F25.3°C 76.4°F24.7°C 96% Calm Calm -- 30.03 in1016.9 mb 0.00 in0.0 mm 0.00 in0.0 mm 0.50 in12.7 mm
08:59 PM 77.5°F25.3°C 76.3°F24.6°C 96% Calm Calm -- 30.03 in1016.9 mb 0.00 in0.0 mm 0.00 in0.0 mm 0.50 in12.7 mm
09:03 PM 77.5°F25.3°C 76.3°F24.6°C 96% Calm Calm -- 30.03 in1016.9 mb 0.00 in0.0 mm 0.00 in0.0 mm 0.50 in12.7 mm
09:04 PM 77.5°F25.3°C 76.3°F24.6°C 96% Calm Calm -- 30.03 in1016.9 mb 0.00 in0.0 mm 0.00 in0.0 mm 0.50 in12.7 mm
09:05 PM 77.5°F25.3°C 76.3°F24.6°C 96% Calm Calm -- 30.04 in1017.3 mb 0.00 in0.0 mm 0.00 in0.0 mm 0.50 in12.7 mm
09:06 PM 77.5°F25.3°C 76.3°F24.6°C 96% Calm Calm -- 30.04 in1017.3 mb 0.00 in0.0 mm 0.00 in0.0 mm 0.50 in12.7 mm
09:07 PM 77.5°F25.3°C 76.3°F24.6°C 96% Calm Calm -- 30.03 in1016.9 mb 0.00 in0.0 mm 0.00 in0.0 mm 0.50 in12.7 mm
09:08 PM 77.4°F25.2°C 76.2°F24.6°C 96% Calm Calm -- 30.04 in1017.3 mb 0.00 in0.0 mm 0.00 in0.0 mm 0.50 in12.7 mm
09:09 PM 77.5°F25.3°C 76.3°F24.6°C 96% Calm Calm -- 30.03 in1016.9 mb 0.00 in0.0 mm 0.00 in0.0 mm 0.50 in12.7 mm
09:10 PM 77.4°F25.2°C 76.2°F24.6°C 96% Calm Calm -- 30.03 in1016.9 mb 0.00 in0.0 mm 0.00 in0.0 mm 0.50 in12.7 mm
09:11 PM 77.4°F25.2°C 76.2°F24.6°C 96% Calm Calm -- 30.04 in1017.3 mb 0.00 in0.0 mm 0.00 in0.0 mm 0.50 in12.7 mm
09:14 PM 77.4°F25.2°C 76.2°F24.6°C 96% Calm Calm -- 30.04 in1017.3 mb 0.00 in0.0 mm 0.00 in0.0 mm 0.50 in12.7 mm
09:16 PM 77.4°F25.2°C 76.2°F24.6°C 96% Calm Calm 1.0 mph1.6 kmh 30.04 in1017.3 mb 0.00 in0.0 mm 0.00 in0.0 mm 0.50 in12.7 mm
09:19 PM 77.3°F25.2°C 76.1°F24.5°C 96% Calm Calm 1.0 mph1.6 kmh 30.04 in1017.3 mb 0.00 in0.0 mm 0.00 in0.0 mm 0.50 in12.7 mm
09:20 PM 77.3°F25.2°C 76.1°F24.5°C 96% Calm Calm 1.0 mph1.6 kmh 30.04 in1017.3 mb 0.00 in0.0 mm 0.00 in0.0 mm 0.50 in12.7 mm
09:21 PM 77.3°F25.2°C 76.1°F24.5°C 96% Calm Calm 1.0 mph1.6 kmh 30.04 in1017.3 mb 0.00 in0.0 mm 0.00 in0.0 mm 0.50 in12.7 mm
09:22 PM 77.3°F25.2°C 76.1°F24.5°C 96% Calm Calm 1.0 mph1.6 kmh 30.04 in1017.3 mb 0.00 in0.0 mm 0.00 in0.0 mm 0.50 in12.7 mm
09:23 PM 77.2°F25.1°C 76.0°F24.4°C 96% Calm Calm 1.0 mph1.6 kmh 30.04 in1017.3 mb 0.00 in0.0 mm 0.00 in0.0 mm 0.50 in12.7 mm
09:24 PM 77.2°F25.1°C 76.0°F24.4°C 96% Calm Calm 1.0 mph1.6 kmh 30.05 in1017.6 mb 0.00 in0.0 mm 0.00 in0.0 mm 0.50 in12.7 mm
09:25 PM 77.2°F25.1°C 76.0°F24.4°C 96% Calm Calm 1.0 mph1.6 kmh 30.05 in1017.6 mb 0.00 in0.0 mm 0.00 in0.0 mm 0.50 in12.7 mm
09:26 PM 77.2°F25.1°C 76.0°F24.4°C 96% Calm Calm -- 30.04 in1017.3 mb 0.00 in0.0 mm 0.00 in0.0 mm 0.50 in12.7 mm
09:29 PM 77.1°F25.1°C 75.9°F24.4°C 96% Calm Calm -- 30.05 in1017.6 mb 0.00 in0.0 mm 0.00 in0.0 mm 0.50 in12.7 mm
09:30 PM 77.1°F25.1°C 75.9°F24.4°C 96% Calm Calm -- 30.05 in1017.6 mb 0.00 in0.0 mm 0.00 in0.0 mm 0.50 in12.7 mm
09:31 PM 77.1°F25.1°C 75.9°F24.4°C 96% Calm Calm -- 30.05 in1017.6 mb 0.00 in0.0 mm 0.00 in0.0 mm 0.50 in12.7 mm
09:33 PM 77.1°F25.1°C 75.9°F24.4°C 96% Calm Calm -- 30.05 in1017.6 mb 0.00 in0.0 mm 0.00 in0.0 mm 0.50 in12.7 mm
09:34 PM 77.0°F25.0°C 75.8°F24.3°C 96% Calm Calm -- 30.05 in1017.6 mb 0.00 in0.0 mm 0.00 in0.0 mm 0.50 in12.7 mm
09:35 PM 77.0°F25.0°C 75.8°F24.3°C 96% Calm Calm -- 30.05 in1017.6 mb 0.00 in0.0 mm 0.00 in0.0 mm 0.50 in12.7 mm
09:38 PM 77.0°F25.0°C 75.8°F24.3°C 96% Calm Calm -- 30.05 in1017.6 mb 0.00 in0.0 mm 0.00 in0.0 mm 0.50 in12.7 mm
09:39 PM 77.0°F25.0°C 75.8°F24.3°C 96% Calm Calm -- 30.06 in1017.9 mb 0.00 in0.0 mm 0.00 in0.0 mm 0.50 in12.7 mm
09:41 PM 76.9°F24.9°C 75.7°F24.3°C 96% Calm Calm -- 30.06 in1017.9 mb 0.00 in0.0 mm 0.00 in0.0 mm 0.50 in12.7 mm
09:43 PM 76.9°F24.9°C 75.7°F24.3°C 96% Calm Calm -- 30.06 in1017.9 mb 0.00 in0.0 mm 0.00 in0.0 mm 0.50 in12.7 mm
09:45 PM 76.8°F24.9°C 75.6°F24.2°C 96% Calm Calm -- 30.06 in1017.9 mb 0.00 in0.0 mm 0.00 in0.0 mm 0.50 in12.7 mm
09:46 PM 76.8°F24.9°C 75.6°F24.2°C 96% Calm Calm -- 30.06 in1017.9 mb 0.00 in0.0 mm 0.00 in0.0 mm 0.50 in12.7 mm
09:47 PM 76.8°F24.9°C 75.6°F24.2°C 96% Calm Calm -- 30.06 in1017.9 mb 0.00 in0.0 mm 0.00 in0.0 mm 0.50 in12.7 mm
09:49 PM 76.8°F24.9°C 75.9°F24.4°C 97% Calm Calm -- 30.06 in1017.9 mb 0.00 in0.0 mm 0.00 in0.0 mm 0.50 in12.7 mm
09:50 PM 76.7°F24.8°C 75.8°F24.3°C 97% Calm Calm -- 30.06 in1017.9 mb 0.00 in0.0 mm 0.00 in0.0 mm 0.50 in12.7 mm
09:51 PM 76.8°F24.9°C 75.9°F24.4°C 97% Calm Calm -- 30.06 in1017.9 mb 0.00 in0.0 mm 0.00 in0.0 mm 0.50 in12.7 mm
09:52 PM 76.8°F24.9°C 75.9°F24.4°C 97% Calm Calm -- 30.06 in1017.9 mb 0.00 in0.0 mm 0.00 in0.0 mm 0.50 in12.7 mm
09:53 PM 76.7°F24.8°C 75.8°F24.3°C 97% Calm Calm -- 30.06 in1017.9 mb 0.00 in0.0 mm 0.00 in0.0 mm 0.50 in12.7 mm
09:54 PM 76.7°F24.8°C 75.8°F24.3°C 97% Calm Calm -- 30.06 in1017.9 mb 0.00 in0.0 mm 0.00 in0.0 mm 0.50 in12.7 mm
09:55 PM 76.7°F24.8°C 75.8°F24.3°C 97% Calm Calm -- 30.06 in1017.9 mb 0.00 in0.0 mm 0.00 in0.0 mm 0.50 in12.7 mm
09:57 PM 76.7°F24.8°C 75.8°F24.3°C 97% Calm Calm -- 30.06 in1017.9 mb 0.00 in0.0 mm 0.00 in0.0 mm 0.50 in12.7 mm
09:58 PM 76.7°F24.8°C 75.8°F24.3°C 97% Calm Calm -- 30.07 in1018.3 mb 0.00 in0.0 mm 0.00 in0.0 mm 0.50 in12.7 mm
09:59 PM 76.7°F24.8°C 75.8°F24.3°C 97% Calm Calm -- 30.07 in1018.3 mb 0.00 in0.0 mm 0.00 in0.0 mm 0.50 in12.7 mm
10:00 PM 76.7°F24.8°C 75.8°F24.3°C 97% Calm Calm -- 30.06 in1017.9 mb 0.00 in0.0 mm 0.00 in0.0 mm 0.50 in12.7 mm
10:01 PM 76.7°F24.8°C 75.8°F24.3°C 97% Calm Calm -- 30.06 in1017.9 mb 0.00 in0.0 mm 0.00 in0.0 mm 0.50 in12.7 mm
10:02 PM 76.7°F24.8°C 75.8°F24.3°C 97% Calm Calm -- 30.07 in1018.3 mb 0.00 in0.0 mm 0.00 in0.0 mm 0.50 in12.7 mm
10:03 PM 76.7°F24.8°C 75.8°F24.3°C 97% Calm Calm -- 30.07 in1018.3 mb 0.00 in0.0 mm 0.00 in0.0 mm 0.50 in12.7 mm
10:05 PM 76.7°F24.8°C 75.8°F24.3°C 97% Calm Calm -- 30.07 in1018.3 mb 0.00 in0.0 mm 0.00 in0.0 mm 0.50 in12.7 mm